createdAt,value
2023-05-22T00:00:36.325Z,96.92
2023-05-22T00:01:36.297Z,96.92
2023-05-22T00:02:36.416Z,96.72
2023-05-22T00:03:36.621Z,96.42
2023-05-22T00:04:36.240Z,96.42
2023-05-22T00:05:36.261Z,96.51
2023-05-22T00:06:36.204Z,96.72
2023-05-22T00:07:36.209Z,97.02
2023-05-22T00:08:36.188Z,96.92
2023-05-22T00:09:36.185Z,96.82
2023-05-22T00:10:36.164Z,97.23
2023-05-22T00:11:36.172Z,97.13
2023-05-22T00:12:36.139Z,96.92
2023-05-22T00:13:36.148Z,96.77
2023-05-22T00:14:36.131Z,96.77
2023-05-22T00:15:36.137Z,96.87
2023-05-22T00:16:36.171Z,96.66
2023-05-22T00:17:36.111Z,96.87
2023-05-22T00:18:36.080Z,97.38
2023-05-22T00:19:36.185Z,97.38
2023-05-22T00:20:36.073Z,97.38
2023-05-22T00:21:36.036Z,97.27
2023-05-22T00:22:36.037Z,97.38
2023-05-22T00:23:36.050Z,97.17
2023-05-22T00:24:36.003Z,97.07
2023-05-22T00:25:35.995Z,97.17
2023-05-22T00:26:35.988Z,98.28
2023-05-22T00:27:35.989Z,98.49
2023-05-22T00:28:35.998Z,98.59
2023-05-22T00:29:35.954Z,98.39
2023-05-22T00:30:35.935Z,98.08
2023-05-22T00:31:35.929Z,97.88
2023-05-22T00:32:35.966Z,97.67
2023-05-22T00:33:35.903Z,97.78
2023-05-22T00:34:35.953Z,97.78
2023-05-22T00:35:35.881Z,97.88
2023-05-22T00:36:35.876Z,98.39
2023-05-22T00:37:35.873Z,98.65
2023-05-22T00:38:35.868Z,98.74
2023-05-22T00:39:35.840Z,99.15
2023-05-22T00:40:35.847Z,99.30
2023-05-22T00:41:35.837Z,99.10
2023-05-22T00:42:35.824Z,99.19
2023-05-22T00:43:35.800Z,99.19
2023-05-22T00:44:35.788Z,99.30
2023-05-22T00:45:35.772Z,99.30
2023-05-22T00:46:35.800Z,99.66
2023-05-22T00:47:35.780Z,99.70
2023-05-22T00:48:35.765Z,99.60
2023-05-22T00:49:35.729Z,99.60
2023-05-22T00:50:35.753Z,99.60
2023-05-22T00:51:35.717Z,99.60
2023-05-22T00:52:35.709Z,99.40
2023-05-22T00:53:35.688Z,99.30
2023-05-22T00:54:35.689Z,98.99
2023-05-22T00:55:35.691Z,98.79
2023-05-22T00:56:35.657Z,98.69
2023-05-22T00:57:35.638Z,98.99
2023-05-22T00:58:35.630Z,99.10
2023-05-22T00:59:35.622Z,99.25
2023-05-22T01:00:35.622Z,99.15
2023-05-22T01:01:35.628Z,99.15
2023-05-22T01:02:35.652Z,99.35
2023-05-22T01:03:35.638Z,99.46
2023-05-22T01:04:35.579Z,99.46
2023-05-22T01:05:35.573Z,99.25
2023-05-22T01:06:35.548Z,99.05
2023-05-22T01:07:35.536Z,98.85
2023-05-22T01:08:35.521Z,99.05
2023-05-22T01:09:35.516Z,99.15
2023-05-22T01:10:35.499Z,99.15
2023-05-22T01:11:35.493Z,99.15
2023-05-22T01:12:35.471Z,99.15
2023-05-22T01:13:35.464Z,99.05
2023-05-22T01:14:35.474Z,98.90
2023-05-22T01:15:35.445Z,98.95
2023-05-22T01:16:35.477Z,98.85
2023-05-22T01:17:35.473Z,98.85
2023-05-22T01:18:35.414Z,98.74
2023-05-22T01:19:35.469Z,98.65
2023-05-22T01:20:35.471Z,98.74
2023-05-22T01:21:35.372Z,98.80
2023-05-22T01:22:35.387Z,99.10
2023-05-22T01:23:35.368Z,99.21
2023-05-22T01:24:35.345Z,99.30
2023-05-22T01:25:35.334Z,99.30
2023-05-22T01:26:35.353Z,99.30
2023-05-22T01:27:35.426Z,99.51
2023-05-22T01:28:35.334Z,99.41
2023-05-22T01:29:35.305Z,99.30
2023-05-22T01:30:35.309Z,99.21
2023-05-22T01:31:35.260Z,99.21
2023-05-22T01:32:35.367Z,99.30
2023-05-22T01:33:35.306Z,99.30
2023-05-22T01:34:35.227Z,99.41
2023-05-22T01:35:35.235Z,99.41
2023-05-22T01:36:35.223Z,99.25
2023-05-22T01:37:35.199Z,99.05
2023-05-22T01:38:35.230Z,99.05
2023-05-22T01:39:35.176Z,99.05
2023-05-22T01:40:35.157Z,99.05
2023-05-22T01:41:35.163Z,98.95
2023-05-22T01:42:35.153Z,98.65
2023-05-22T01:43:35.150Z,98.44
2023-05-22T01:44:35.129Z,98.74
2023-05-22T01:45:35.137Z,98.44
2023-05-22T01:46:35.097Z,98.03
2023-05-22T01:47:35.143Z,97.94
2023-05-22T01:48:35.082Z,97.73
2023-05-22T01:49:35.076Z,97.94
2023-05-22T01:50:35.066Z,98.14
2023-05-22T01:51:35.049Z,98.44
2023-05-22T01:52:35.039Z,98.44
2023-05-22T01:53:35.019Z,98.24
2023-05-22T01:54:35.004Z,98.14
2023-05-22T01:55:35.044Z,98.24
2023-05-22T01:56:35.002Z,98.44
2023-05-22T01:57:34.980Z,98.34
2023-05-22T01:58:34.978Z,98.24
2023-05-22T01:59:34.956Z,98.44
2023-05-22T02:00:34.954Z,98.54
2023-05-22T02:01:34.959Z,98.69
2023-05-22T02:02:34.967Z,98.59
2023-05-22T02:03:35.024Z,98.59
2023-05-22T02:04:34.935Z,98.69
2023-05-22T02:05:34.895Z,98.59
2023-05-22T02:06:34.878Z,98.90
2023-05-22T02:07:34.867Z,98.90
2023-05-22T02:08:34.857Z,98.90
2023-05-22T02:09:34.844Z,98.90
2023-05-22T02:10:34.846Z,98.90
2023-05-22T02:11:34.828Z,98.69
2023-05-22T02:12:34.810Z,98.59
2023-05-22T02:13:34.805Z,98.43
2023-05-22T02:14:34.804Z,98.23
2023-05-22T02:15:34.818Z,98.03
2023-05-22T02:16:34.772Z,97.92
2023-05-22T02:17:34.825Z,97.83
2023-05-22T02:18:34.745Z,97.92
2023-05-22T02:19:34.869Z,98.23
2023-05-22T02:20:34.737Z,98.13
2023-05-22T02:21:34.719Z,97.92
2023-05-22T02:22:34.699Z,98.23
2023-05-22T02:23:34.694Z,98.54
2023-05-22T02:24:34.686Z,98.63
2023-05-22T02:25:34.677Z,98.84
2023-05-22T02:26:34.658Z,99.04
2023-05-22T02:27:34.643Z,99.04
2023-05-22T02:28:34.658Z,98.94
2023-05-22T02:29:34.641Z,99.04
2023-05-22T02:30:34.636Z,99.04
2023-05-22T02:31:34.653Z,98.94
2023-05-22T02:32:34.623Z,98.74
2023-05-22T02:33:34.605Z,98.54
2023-05-22T02:34:34.585Z,98.74
2023-05-22T02:35:34.575Z,98.63
2023-05-22T02:36:34.544Z,98.68
2023-05-22T02:37:34.558Z,98.58
2023-05-22T02:38:34.572Z,98.84
2023-05-22T02:39:34.528Z,98.99
2023-05-22T02:40:34.516Z,98.88
2023-05-22T02:41:34.499Z,98.68
2023-05-22T02:42:34.486Z,98.38
2023-05-22T02:43:34.484Z,98.28
2023-05-22T02:44:34.465Z,98.28
2023-05-22T02:45:34.456Z,98.48
2023-05-22T02:46:34.450Z,98.58
2023-05-22T02:47:34.484Z,98.79
2023-05-22T02:48:34.411Z,98.88
2023-05-22T02:49:34.404Z,98.99
2023-05-22T02:50:34.401Z,98.79
2023-05-22T02:51:34.386Z,98.73
2023-05-22T02:52:34.378Z,98.63
2023-05-22T02:53:34.367Z,98.43
2023-05-22T02:54:34.339Z,98.43
2023-05-22T02:55:34.337Z,98.83
2023-05-22T02:56:34.348Z,99.04
2023-05-22T02:57:34.324Z,99.13
2023-05-22T02:58:34.302Z,99.33
2023-05-22T02:59:34.290Z,99.33
2023-05-22T03:00:34.277Z,99.33
2023-05-22T03:01:34.342Z,99.44
2023-05-22T03:02:34.360Z,99.44
2023-05-22T03:03:34.356Z,99.24
2023-05-22T03:04:34.226Z,99.24
2023-05-22T03:05:34.247Z,99.33
2023-05-22T03:06:34.286Z,99.54
2023-05-22T03:07:34.208Z,99.44
2023-05-22T03:08:34.196Z,99.38
2023-05-22T03:09:34.174Z,99.49
2023-05-22T03:10:34.190Z,99.38
2023-05-22T03:11:34.163Z,99.18
2023-05-22T03:12:34.145Z,99.08
2023-05-22T03:13:34.135Z,99.18
2023-05-22T03:14:34.119Z,99.28
2023-05-22T03:15:34.135Z,99.28
2023-05-22T03:16:34.143Z,99.38
2023-05-22T03:17:34.136Z,99.49
2023-05-22T03:18:34.099Z,99.69
2023-05-22T03:19:34.116Z,99.69
2023-05-22T03:20:34.316Z,99.69
2023-05-22T03:21:34.060Z,99.69
2023-05-22T03:22:34.039Z,99.79
2023-05-22T03:23:34.055Z,99.79
2023-05-22T03:24:34.016Z,99.79
2023-05-22T03:25:34.176Z,99.69
2023-05-22T03:26:33.994Z,99.63
2023-05-22T03:27:33.977Z,99.43
2023-05-22T03:28:34.012Z,99.33
2023-05-22T03:29:33.968Z,99.33
2023-05-22T03:30:33.968Z,99.33
2023-05-22T03:31:33.952Z,99.22
2023-05-22T03:32:33.970Z,99.33
2023-05-22T03:33:33.993Z,99.43
2023-05-22T03:34:33.924Z,99.53
2023-05-22T03:35:33.912Z,99.69
2023-05-22T03:36:33.880Z,99.84
2023-05-22T03:37:33.871Z,99.84
2023-05-22T03:38:33.859Z,99.84
2023-05-22T03:39:33.868Z,99.74
2023-05-22T03:40:33.829Z,99.84
2023-05-22T03:41:33.870Z,99.84
2023-05-22T03:42:33.819Z,99.84
2023-05-22T03:43:33.815Z,99.84
2023-05-22T03:44:33.828Z,99.94
2023-05-22T03:45:33.849Z,99.94
2023-05-22T03:46:33.795Z,99.94
2023-05-22T03:47:33.824Z,99.99
2023-05-22T03:48:33.758Z,99.99
2023-05-22T03:49:33.756Z,99.84
2023-05-22T03:50:33.729Z,99.84
2023-05-22T03:51:33.718Z,99.99
2023-05-22T03:52:33.715Z,99.99
2023-05-22T03:53:33.706Z,99.99
2023-05-22T03:54:33.685Z,99.99
2023-05-22T03:55:33.701Z,99.99
2023-05-22T03:56:33.663Z,99.99
2023-05-22T03:57:33.669Z,99.84
2023-05-22T03:58:33.653Z,99.84
2023-05-22T03:59:33.650Z,99.74
2023-05-22T04:00:33.647Z,99.74
2023-05-22T04:01:33.628Z,99.53
2023-05-22T04:02:33.665Z,99.33
2023-05-22T04:03:33.683Z,99.27
2023-05-22T04:04:33.577Z,99.13
2023-05-22T04:05:33.632Z,98.97
2023-05-22T04:06:33.539Z,98.77
2023-05-22T04:07:33.560Z,98.66
2023-05-22T04:08:33.520Z,98.46
2023-05-22T04:09:33.519Z,98.46
2023-05-22T04:10:33.512Z,98.36
2023-05-22T04:11:33.498Z,98.62
2023-05-22T04:12:33.502Z,98.92
2023-05-22T04:13:33.480Z,99.33
2023-05-22T04:14:33.456Z,99.43
2023-05-22T04:15:33.490Z,99.43
2023-05-22T04:16:33.493Z,99.22
2023-05-22T04:17:33.749Z,99.02
2023-05-22T04:18:33.421Z,98.97
2023-05-22T04:19:33.490Z,98.77
2023-05-22T04:20:33.396Z,98.56
2023-05-22T04:21:33.456Z,98.46
2023-05-22T04:22:33.370Z,98.36
2023-05-22T04:23:33.370Z,98.26
2023-05-22T04:24:33.341Z,98.21
2023-05-22T04:25:33.351Z,98.72
2023-05-22T04:26:33.386Z,99.02
2023-05-22T04:27:33.313Z,99.02
2023-05-22T04:28:33.302Z,99.02
2023-05-22T04:29:33.336Z,99.22
2023-05-22T04:30:33.292Z,99.22
2023-05-22T04:31:33.376Z,99.22
2023-05-22T04:32:33.289Z,99.43
2023-05-22T04:33:33.242Z,99.53
2023-05-22T04:34:33.246Z,99.79
2023-05-22T04:35:33.241Z,99.99
2023-05-22T04:36:33.283Z,99.99
2023-05-22T04:37:33.214Z,99.99
2023-05-22T04:38:33.196Z,99.99
2023-05-22T04:39:33.208Z,99.99
2023-05-22T04:40:33.168Z,99.99
2023-05-22T04:41:33.172Z,99.99
2023-05-22T04:42:33.148Z,99.99
2023-05-22T04:43:33.154Z,99.99
2023-05-22T04:44:33.129Z,99.99
2023-05-22T04:45:33.192Z,99.99
2023-05-22T04:46:33.172Z,99.99
2023-05-22T04:47:33.133Z,99.99
2023-05-22T04:48:33.077Z,99.99
2023-05-22T04:49:33.113Z,99.99
2023-05-22T04:50:33.138Z,99.99
2023-05-22T04:51:33.159Z,99.99
2023-05-22T04:52:33.038Z,99.99
2023-05-22T04:53:33.027Z,99.99
2023-05-22T04:54:33.017Z,99.99
2023-05-22T04:55:33.006Z,99.99
2023-05-22T04:56:36.784Z,99.99
2023-05-22T04:57:32.978Z,99.99
2023-05-22T04:58:32.987Z,99.99
2023-05-22T04:59:32.966Z,99.99
2023-05-22T05:00:32.983Z,99.99
2023-05-22T05:01:33.602Z,99.99
2023-05-22T05:02:32.987Z,99.99
2023-05-22T05:03:32.954Z,99.99
2023-05-22T05:04:32.898Z,99.99
2023-05-22T05:05:32.893Z,99.99
2023-05-22T05:06:32.878Z,99.99
2023-05-22T05:07:32.889Z,99.99
2023-05-22T05:08:32.856Z,99.99
2023-05-22T05:09:32.844Z,99.99
2023-05-22T05:10:32.829Z,99.99
2023-05-22T05:11:32.853Z,99.99
2023-05-22T05:12:32.890Z,99.99
2023-05-22T05:13:32.835Z,99.99
2023-05-22T05:14:32.789Z,99.99
2023-05-22T05:15:32.789Z,99.99
2023-05-22T05:16:32.837Z,99.99
2023-05-22T05:17:32.780Z,99.99
2023-05-22T05:18:32.745Z,99.99
2023-05-22T05:19:34.779Z,99.99
2023-05-22T05:20:32.726Z,99.99
2023-05-22T05:21:32.718Z,99.99
2023-05-22T05:22:32.710Z,99.99
2023-05-22T05:23:32.707Z,99.99
2023-05-22T05:24:32.674Z,99.99
2023-05-22T05:25:32.794Z,99.99
2023-05-22T05:26:32.670Z,99.99
2023-05-22T05:27:32.665Z,99.99
2023-05-22T05:28:32.636Z,99.99
2023-05-22T05:29:32.625Z,99.99
2023-05-22T05:30:32.631Z,99.99
2023-05-22T05:31:32.627Z,99.99
2023-05-22T05:32:32.629Z,99.99
2023-05-22T05:33:32.597Z,99.99
2023-05-22T05:34:32.594Z,99.99
2023-05-22T05:35:32.564Z,99.91
2023-05-22T05:36:32.568Z,99.91
2023-05-22T05:37:32.584Z,99.81
2023-05-22T05:38:32.522Z,99.71
2023-05-22T05:39:32.520Z,99.61
2023-05-22T05:40:32.525Z,99.51
2023-05-22T05:41:32.501Z,99.46
2023-05-22T05:42:32.477Z,99.56
2023-05-22T05:43:32.483Z,99.56
2023-05-22T05:44:32.476Z,99.56
2023-05-22T05:45:32.469Z,99.46
2023-05-22T05:46:32.528Z,99.36
2023-05-22T05:47:32.488Z,99.32
2023-05-22T05:48:32.427Z,99.21
2023-05-22T05:49:34.184Z,99.21
2023-05-22T05:50:32.411Z,99.07
2023-05-22T05:51:32.384Z,99.16
2023-05-22T05:52:32.380Z,98.96
2023-05-22T05:53:32.396Z,98.86
2023-05-22T05:54:32.352Z,98.76
2023-05-22T05:55:33.892Z,98.61
2023-05-22T05:56:32.339Z,98.51
2023-05-22T05:57:32.327Z,98.31
2023-05-22T05:58:32.335Z,98.01
2023-05-22T05:59:32.304Z,97.66
2023-05-22T06:00:32.287Z,97.86
2023-05-22T06:01:32.281Z,97.56
2023-05-22T06:02:32.339Z,97.16
2023-05-22T06:03:32.366Z,96.85
2023-05-22T06:04:32.248Z,96.50
2023-05-22T06:05:32.280Z,96.60
2023-05-22T06:06:32.215Z,96.70
2023-05-22T06:07:32.231Z,96.60
2023-05-22T06:08:32.278Z,96.60
2023-05-22T06:09:32.192Z,96.10
2023-05-22T06:10:32.172Z,96.00
2023-05-22T06:11:32.171Z,95.90
2023-05-22T06:12:32.213Z,95.90
2023-05-22T06:13:32.169Z,95.75
2023-05-22T06:14:32.142Z,95.85
2023-05-22T06:15:32.174Z,95.55
2023-05-22T06:16:32.186Z,95.55
2023-05-22T06:17:32.134Z,95.75
2023-05-22T06:18:32.096Z,95.45
2023-05-22T06:19:32.224Z,95.14
2023-05-22T06:20:32.073Z,95.04
2023-05-22T06:21:32.054Z,94.94
2023-05-22T06:22:32.040Z,94.64
2023-05-22T06:23:32.184Z,94.64
2023-05-22T06:24:32.029Z,94.39
2023-05-22T06:25:32.010Z,93.99
2023-05-22T06:26:32.039Z,94.29
2023-05-22T06:27:32.102Z,94.29
2023-05-22T06:28:31.998Z,93.99
2023-05-22T06:29:32.060Z,94.25
2023-05-22T06:30:40.149Z,93.85
2023-05-22T06:31:32.949Z,93.54
2023-05-22T06:32:32.162Z,93.04
2023-05-22T06:33:31.952Z,93.44
2023-05-22T06:34:31.944Z,92.94
2023-05-22T06:35:31.909Z,92.94
2023-05-22T06:36:31.896Z,93.10
2023-05-22T06:37:31.885Z,92.09
2023-05-22T06:38:31.992Z,92.39
2023-05-22T06:39:32.214Z,92.39
2023-05-22T06:40:31.871Z,92.09
2023-05-22T06:41:31.829Z,92.29
2023-05-22T06:42:31.846Z,92.03
2023-05-22T06:43:31.813Z,92.54
2023-05-22T06:44:31.817Z,92.13
2023-05-22T06:45:31.919Z,92.13
2023-05-22T06:46:31.849Z,91.89
2023-05-22T06:47:31.792Z,92.09
2023-05-22T06:48:31.844Z,91.69
2023-05-22T06:49:31.761Z,91.89
2023-05-22T06:50:31.756Z,92.09
2023-05-22T06:51:31.732Z,91.58
2023-05-22T06:52:31.722Z,91.89
2023-05-22T06:53:31.702Z,92.29
2023-05-22T06:54:31.697Z,91.58
2023-05-22T06:55:31.698Z,91.49
2023-05-22T06:56:31.699Z,91.89
2023-05-22T06:57:31.671Z,91.69
2023-05-22T06:58:31.683Z,91.69
2023-05-22T06:59:31.771Z,91.49
2023-05-22T07:00:31.646Z,91.49
2023-05-22T07:01:31.686Z,91.49
2023-05-22T07:02:31.632Z,91.28
2023-05-22T07:03:31.628Z,90.98
2023-05-22T07:04:31.625Z,91.49
2023-05-22T07:05:31.709Z,91.69
2023-05-22T07:06:31.584Z,92.65
2023-05-22T07:07:31.612Z,92.45
2023-05-22T07:08:31.567Z,91.85
2023-05-22T07:09:31.550Z,91.50
2023-05-22T07:10:31.531Z,91.39
2023-05-22T07:11:31.517Z,91.19
2023-05-22T07:12:31.507Z,90.79
2023-05-22T07:13:31.503Z,90.59
2023-05-22T07:14:31.509Z,90.29
2023-05-22T07:15:31.468Z,89.89
2023-05-22T07:16:31.559Z,89.54
2023-05-22T07:17:31.535Z,90.34
2023-05-22T07:18:31.435Z,89.14
2023-05-22T07:19:31.493Z,88.84
2023-05-22T07:20:31.418Z,89.75
2023-05-22T07:21:31.418Z,88.94
2023-05-22T07:22:31.409Z,88.74
2023-05-22T07:23:31.386Z,89.64
2023-05-22T07:24:31.376Z,90.05
2023-05-22T07:25:31.355Z,90.15
2023-05-22T07:26:31.940Z,89.59
2023-05-22T07:27:31.332Z,89.84
2023-05-22T07:28:31.337Z,89.44
2023-05-22T07:29:31.309Z,89.44
2023-05-22T07:30:31.307Z,89.75
2023-05-22T07:31:31.368Z,89.34
2023-05-22T07:32:31.340Z,89.64
2023-05-22T07:33:31.271Z,88.74
2023-05-22T07:34:31.257Z,89.44
2023-05-22T07:35:31.250Z,89.14
2023-05-22T07:36:31.251Z,88.94
2023-05-22T07:37:31.240Z,89.84
2023-05-22T07:38:31.219Z,89.44
2023-05-22T07:39:31.204Z,89.54
2023-05-22T07:40:31.199Z,90.95
2023-05-22T07:41:31.194Z,90.25
2023-05-22T07:42:31.193Z,89.64
2023-05-22T07:43:31.176Z,89.04
2023-05-22T07:44:31.162Z,89.44
2023-05-22T07:45:31.150Z,89.50
2023-05-22T07:46:31.219Z,89.60
2023-05-22T07:47:31.155Z,89.30
2023-05-22T07:48:31.105Z,89.50
2023-05-22T07:49:31.089Z,88.90
2023-05-22T07:50:31.084Z,88.59
2023-05-22T07:51:31.081Z,88.59
2023-05-22T07:52:31.083Z,89.00
2023-05-22T07:53:31.049Z,88.70
2023-05-22T07:54:31.047Z,89.06
2023-05-22T07:55:31.031Z,88.65
2023-05-22T07:56:31.040Z,89.76
2023-05-22T07:57:31.046Z,88.85
2023-05-22T07:58:30.995Z,88.61
2023-05-22T07:59:30.986Z,87.75
2023-05-22T08:00:30.988Z,88.05
2023-05-22T08:01:30.962Z,88.21
2023-05-22T08:02:31.062Z,87.91
2023-05-22T08:03:31.003Z,87.81
2023-05-22T08:04:31.080Z,87.60
2023-05-22T08:05:30.954Z,87.41
2023-05-22T08:06:30.925Z,88.51
2023-05-22T08:07:30.897Z,87.21
2023-05-22T08:08:31.954Z,86.90
2023-05-22T08:09:30.873Z,86.76
2023-05-22T08:10:46.400Z,88.17
2023-05-22T08:11:31.858Z,87.82
2023-05-22T08:12:30.840Z,87.22
2023-05-22T08:13:30.882Z,85.11
2023-05-22T08:14:30.829Z,85.16
2023-05-22T08:15:30.820Z,84.85
2023-05-22T08:16:30.815Z,84.35
2023-05-22T08:17:30.826Z,85.31
2023-05-22T08:18:30.825Z,85.61
2023-05-22T08:19:30.828Z,85.82
2023-05-22T08:20:30.876Z,85.82
2023-05-22T08:21:30.748Z,85.82
2023-05-22T08:22:30.734Z,85.41
2023-05-22T08:23:30.725Z,85.82
2023-05-22T08:24:30.745Z,85.47
2023-05-22T08:25:30.706Z,84.21
2023-05-22T08:26:32.232Z,85.58
2023-05-22T08:27:30.674Z,84.57
2023-05-22T08:28:30.680Z,84.77
2023-05-22T08:29:30.667Z,85.78
2023-05-22T08:30:30.640Z,84.67
2023-05-22T08:31:30.717Z,85.08
2023-05-22T08:32:31.440Z,84.77
2023-05-22T08:33:30.620Z,84.97
2023-05-22T08:34:30.602Z,86.18
2023-05-22T08:35:30.666Z,86.18
2023-05-22T08:36:30.585Z,85.78
2023-05-22T08:37:30.580Z,85.78
2023-05-22T08:38:30.558Z,85.68
2023-05-22T08:39:30.543Z,84.57
2023-05-22T08:40:30.529Z,84.83
2023-05-22T08:41:30.604Z,85.24
2023-05-22T08:42:30.513Z,85.49
2023-05-22T08:43:30.558Z,84.79
2023-05-22T08:44:30.490Z,84.39
2023-05-22T08:45:30.497Z,84.49
2023-05-22T08:46:30.480Z,83.49
2023-05-22T08:47:30.503Z,83.89
2023-05-22T08:48:30.460Z,84.79
2023-05-22T08:49:30.438Z,83.99
2023-05-22T08:50:30.437Z,83.09
2023-05-22T08:51:30.413Z,83.69
2023-05-22T08:52:30.408Z,85.15
2023-05-22T08:53:30.400Z,84.65
2023-05-22T08:54:30.381Z,83.25
2023-05-22T08:55:30.386Z,82.65
2023-05-22T08:56:31.030Z,82.95
2023-05-22T08:57:30.372Z,83.81
2023-05-22T08:58:30.368Z,82.81
2023-05-22T08:59:30.334Z,82.05
2023-05-22T09:00:30.328Z,83.65
2023-05-22T09:01:30.345Z,83.15
2023-05-22T09:02:30.324Z,82.24
2023-05-22T09:03:30.545Z,83.51
2023-05-22T09:04:30.283Z,82.87
2023-05-22T09:05:30.274Z,81.67
2023-05-22T09:06:30.282Z,81.27
2023-05-22T09:07:30.253Z,80.63
2023-05-22T09:08:30.249Z,80.13
2023-05-22T09:09:30.262Z,81.03
2023-05-22T09:10:30.212Z,81.89
2023-05-22T09:11:30.223Z,80.39
2023-05-22T09:12:30.200Z,80.59
2023-05-22T09:13:30.339Z,79.65
2023-05-22T09:14:30.203Z,79.41
2023-05-22T09:15:30.265Z,78.75
2023-05-22T09:16:30.182Z,79.35
2023-05-22T09:17:30.263Z,79.25
2023-05-22T09:18:30.267Z,79.25
2023-05-22T09:19:30.205Z,79.65
2023-05-22T09:20:30.167Z,79.65
2023-05-22T09:21:30.816Z,78.96
2023-05-22T09:22:30.138Z,79.05
2023-05-22T09:23:30.159Z,80.26
2023-05-22T09:24:30.125Z,81.05
2023-05-22T09:25:30.063Z,79.16
2023-05-22T09:26:30.052Z,79.16
2023-05-22T09:27:30.044Z,79.65
2023-05-22T09:28:30.055Z,79.55
2023-05-22T09:29:30.069Z,79.16
2023-05-22T09:30:30.045Z,79.16
2023-05-22T09:31:30.152Z,78.96
2023-05-22T09:32:30.066Z,80.65
2023-05-22T09:33:29.998Z,80.55
2023-05-22T09:34:29.977Z,79.65
2023-05-22T09:35:29.961Z,79.46
2023-05-22T09:36:29.955Z,79.35
2023-05-22T09:37:29.959Z,80.39
2023-05-22T09:38:29.944Z,78.59
2023-05-22T09:39:29.911Z,78.79
2023-05-22T09:40:29.906Z,80.29
2023-05-22T09:41:29.906Z,79.85
2023-05-22T09:42:29.907Z,78.89
2023-05-22T09:43:29.885Z,78.49
2023-05-22T09:44:29.870Z,79.03
2023-05-22T09:45:29.845Z,79.17
2023-05-22T09:46:29.927Z,80.17
2023-05-22T09:47:29.866Z,80.07
2023-05-22T09:48:29.863Z,80.03
2023-05-22T09:49:29.824Z,80.73
2023-05-22T09:50:29.819Z,80.09
2023-05-22T09:51:29.801Z,79.79
2023-05-22T09:52:29.780Z,79.43
2023-05-22T09:53:29.789Z,80.23
2023-05-22T09:54:29.766Z,79.77
2023-05-22T09:55:29.754Z,80.17
2023-05-22T09:56:38.676Z,79.77
2023-05-22T09:57:30.731Z,79.86
2023-05-22T09:58:29.734Z,81.47
2023-05-22T09:59:29.699Z,79.47
2023-05-22T10:00:29.687Z,79.97
2023-05-22T10:01:29.697Z,78.86
2023-05-22T10:02:29.725Z,79.47
2023-05-22T10:03:29.656Z,79.36
2023-05-22T10:04:29.710Z,80.11
2023-05-22T10:05:29.671Z,79.86
2023-05-22T10:06:29.637Z,79.57
2023-05-22T10:07:29.629Z,79.97
2023-05-22T10:08:29.606Z,79.80
2023-05-22T10:09:29.597Z,81.77
2023-05-22T10:10:29.589Z,80.87
2023-05-22T10:11:30.371Z,80.57
2023-05-22T10:12:29.580Z,80.67
2023-05-22T10:13:29.548Z,80.67
2023-05-22T10:14:30.910Z,80.57
2023-05-22T10:15:29.570Z,79.97
2023-05-22T10:16:29.599Z,80.93
2023-05-22T10:17:29.566Z,79.43
2023-05-22T10:18:29.516Z,79.06
2023-05-22T10:19:29.559Z,79.57
2023-05-22T10:20:29.491Z,79.86
2023-05-22T10:21:29.462Z,79.77
2023-05-22T10:22:29.461Z,79.17
2023-05-22T10:23:29.464Z,79.36
2023-05-22T10:24:29.435Z,78.36
2023-05-22T10:25:29.422Z,79.27
2023-05-22T10:26:29.412Z,78.83
2023-05-22T10:27:29.401Z,79.03
2023-05-22T10:28:29.401Z,78.03
2023-05-22T10:29:29.379Z,77.53
2023-05-22T10:30:29.387Z,78.73
2023-05-22T10:31:29.355Z,79.36
2023-05-22T10:32:29.379Z,78.97
2023-05-22T10:33:29.366Z,79.17
2023-05-22T10:34:29.332Z,78.67
2023-05-22T10:35:29.323Z,80.47
2023-05-22T10:36:29.314Z,78.97
2023-05-22T10:37:29.311Z,79.33
2023-05-22T10:38:29.394Z,78.29
2023-05-22T10:39:29.326Z,77.29
2023-05-22T10:40:29.375Z,78.19
2023-05-22T10:41:29.252Z,79.05
2023-05-22T10:42:29.266Z,77.12
2023-05-22T10:43:29.238Z,75.89
2023-05-22T10:44:29.258Z,76.88
2023-05-22T10:45:29.245Z,75.32
2023-05-22T10:46:29.313Z,75.96
2023-05-22T10:47:29.221Z,75.89
2023-05-22T10:48:29.178Z,75.02
2023-05-22T10:49:29.178Z,76.23
2023-05-22T10:50:29.169Z,77.23
2023-05-22T10:51:29.147Z,77.93
2023-05-22T10:52:29.140Z,77.69
2023-05-22T10:53:29.147Z,77.83
2023-05-22T10:54:29.222Z,76.93
2023-05-22T10:55:29.114Z,78.43
2023-05-22T10:56:29.187Z,77.83
2023-05-22T10:57:29.081Z,76.97
2023-05-22T10:58:29.101Z,76.67
2023-05-22T10:59:29.057Z,76.33
2023-05-22T11:00:29.092Z,75.69
2023-05-22T11:01:29.080Z,76.49
2023-05-22T11:02:29.329Z,76.33
2023-05-22T11:03:29.103Z,76.93
2023-05-22T11:04:29.099Z,77.67
2023-05-22T11:05:29.008Z,78.27
2023-05-22T11:06:28.986Z,77.86
2023-05-22T11:07:28.976Z,77.93
2023-05-22T11:08:29.003Z,77.03
2023-05-22T11:09:29.071Z,76.63
2023-05-22T11:10:28.967Z,75.99
2023-05-22T11:11:28.934Z,76.09
2023-05-22T11:12:28.994Z,76.29
2023-05-22T11:13:29.628Z,76.56
2023-05-22T11:14:28.940Z,76.35
2023-05-22T11:15:28.927Z,76.56
2023-05-22T11:16:28.909Z,76.15
2023-05-22T11:17:28.933Z,75.79
2023-05-22T11:18:28.902Z,76.89
2023-05-22T11:19:28.911Z,76.79
2023-05-22T11:20:28.857Z,77.19
2023-05-22T11:21:28.833Z,76.99
2023-05-22T11:22:28.830Z,76.35
2023-05-22T11:23:28.827Z,76.86
2023-05-22T11:24:28.809Z,79.41
2023-05-22T11:25:28.804Z,77.08
2023-05-22T11:26:28.785Z,75.18
2023-05-22T11:27:28.785Z,74.58
2023-05-22T11:28:28.838Z,74.42
2023-05-22T11:29:29.593Z,74.68
2023-05-22T11:30:28.754Z,74.29
2023-05-22T11:31:28.819Z,74.58
2023-05-22T11:32:28.758Z,74.85
2023-05-22T11:33:28.732Z,74.55
2023-05-22T11:34:28.734Z,73.75
2023-05-22T11:35:28.688Z,74.55
2023-05-22T11:36:28.679Z,74.05
2023-05-22T11:37:28.692Z,72.85
2023-05-22T11:38:28.754Z,72.85
2023-05-22T11:39:28.693Z,74.41
2023-05-22T11:40:28.724Z,72.78
2023-05-22T11:41:29.076Z,71.82
2023-05-22T11:42:28.649Z,71.86
2023-05-22T11:43:28.600Z,72.78
2023-05-22T11:44:28.686Z,73.88
2023-05-22T11:45:28.585Z,73.75
2023-05-22T11:46:28.648Z,73.35
2023-05-22T11:47:28.877Z,73.32
2023-05-22T11:48:28.566Z,73.68
2023-05-22T11:49:28.550Z,72.75
2023-05-22T11:50:41.648Z,72.49
2023-05-22T11:51:29.537Z,72.08
2023-05-22T11:52:28.878Z,71.98
2023-05-22T11:53:28.515Z,71.78
2023-05-22T11:54:28.518Z,70.62
2023-05-22T11:55:28.508Z,72.12
2023-05-22T11:56:29.006Z,73.02
2023-05-22T11:57:28.520Z,72.52
2023-05-22T11:58:28.558Z,72.45
2023-05-22T11:59:28.528Z,73.55
2023-05-22T12:00:28.568Z,72.52
2023-05-22T12:01:28.440Z,73.52
2023-05-22T12:02:28.487Z,72.42
2023-05-22T12:03:28.513Z,73.15
2023-05-22T12:04:28.464Z,72.35
2023-05-22T12:05:28.404Z,72.75
2023-05-22T12:06:28.396Z,72.52
2023-05-22T12:07:28.364Z,72.52
2023-05-22T12:08:28.391Z,72.95
2023-05-22T12:09:28.355Z,72.85
2023-05-22T12:10:28.350Z,72.45
2023-05-22T12:11:28.329Z,72.95
2023-05-22T12:12:28.334Z,73.35
2023-05-22T12:13:28.328Z,73.72
2023-05-22T12:14:28.310Z,73.11
2023-05-22T12:15:28.296Z,72.28
2023-05-22T12:16:28.339Z,73.82
2023-05-22T12:17:28.305Z,73.78
2023-05-22T12:18:28.281Z,72.49
2023-05-22T12:19:28.266Z,71.95
2023-05-22T12:20:28.234Z,72.28
2023-05-22T12:21:28.221Z,73.11
2023-05-22T12:22:28.220Z,71.89
2023-05-22T12:23:28.210Z,71.75
2023-05-22T12:24:28.182Z,72.05
2023-05-22T12:25:28.186Z,71.55
2023-05-22T12:26:28.176Z,73.94
2023-05-22T12:27:28.178Z,72.22
2023-05-22T12:28:28.164Z,71.62
2023-05-22T12:29:28.138Z,72.05
2023-05-22T12:30:28.126Z,72.55
2023-05-22T12:31:28.309Z,71.82
2023-05-22T12:32:28.245Z,73.32
2023-05-22T12:33:28.100Z,73.32
2023-05-22T12:34:28.100Z,72.88
2023-05-22T12:35:28.086Z,72.28
2023-05-22T12:36:28.066Z,72.98
2023-05-22T12:37:28.308Z,72.98
2023-05-22T12:38:28.075Z,72.19
2023-05-22T12:39:28.033Z,71.42
2023-05-22T12:40:28.043Z,72.72
2023-05-22T12:41:28.028Z,73.32
2023-05-22T12:42:28.053Z,73.32
2023-05-22T12:43:28.013Z,72.62
2023-05-22T12:44:27.989Z,72.52
2023-05-22T12:45:27.998Z,72.55
2023-05-22T12:46:28.042Z,73.61
2023-05-22T12:47:28.063Z,73.32
2023-05-22T12:48:27.953Z,73.18
2023-05-22T12:49:27.964Z,75.94
2023-05-22T12:50:27.949Z,72.31
2023-05-22T12:51:27.934Z,71.45
2023-05-22T12:52:27.931Z,71.98